createdAt,value
2023-04-22T00:00:48.423Z,3.10
2023-04-22T00:01:48.591Z,2.10
2023-04-22T00:02:48.887Z,3.40
2023-04-22T00:03:49.211Z,2.80
2023-04-22T00:04:49.326Z,3.40
2023-04-22T00:05:49.384Z,2.20
2023-04-22T00:06:49.507Z,3.10
2023-04-22T00:07:49.690Z,3.00
2023-04-22T00:08:49.876Z,2.60
2023-04-22T00:09:50.044Z,3.10
2023-04-22T00:10:50.210Z,2.70
2023-04-22T00:11:50.384Z,2.50
2023-04-22T00:12:50.556Z,3.00
2023-04-22T00:13:50.741Z,3.00
2023-04-22T00:14:50.919Z,2.00
2023-04-22T00:15:51.173Z,2.60
2023-04-22T00:16:51.249Z,2.90
2023-04-22T00:17:51.460Z,3.20
2023-04-22T00:18:51.637Z,2.90
2023-04-22T00:19:51.803Z,3.10
2023-04-22T00:20:51.969Z,2.90
2023-04-22T00:21:52.141Z,3.10
2023-04-22T00:22:52.317Z,3.20
2023-04-22T00:23:52.491Z,3.00
2023-04-22T00:24:52.673Z,2.70
2023-04-22T00:25:52.824Z,3.40
2023-04-22T00:26:52.989Z,2.70
2023-04-22T00:27:53.166Z,3.50
2023-04-22T00:28:53.345Z,3.10
2023-04-22T00:29:53.484Z,3.70
2023-04-22T00:30:53.720Z,3.20
2023-04-22T00:31:53.897Z,2.70
2023-04-22T00:32:54.012Z,2.70
2023-04-22T00:33:54.200Z,2.80
2023-04-22T00:34:54.358Z,3.20
2023-04-22T00:35:54.533Z,2.50
2023-04-22T00:36:54.704Z,3.40
2023-04-22T00:37:54.866Z,2.90
2023-04-22T00:38:55.097Z,3.00
2023-04-22T00:39:55.211Z,2.90
2023-04-22T00:40:55.384Z,2.80
2023-04-22T00:41:55.549Z,3.20
2023-04-22T00:42:55.712Z,3.30
2023-04-22T00:43:55.891Z,2.70
2023-04-22T00:44:56.062Z,3.10
2023-04-22T00:45:56.224Z,2.90
2023-04-22T00:46:56.437Z,2.80
2023-04-22T00:47:56.639Z,2.70
2023-04-22T00:48:56.769Z,3.00
2023-04-22T00:49:56.892Z,3.50
2023-04-22T00:50:57.056Z,2.50
2023-04-22T00:51:57.230Z,2.90
2023-04-22T00:52:57.407Z,2.70
2023-04-22T00:53:57.594Z,2.90
2023-04-22T00:54:57.776Z,3.10
2023-04-22T00:55:57.925Z,2.80
2023-04-22T00:56:58.103Z,2.70
2023-04-22T00:57:58.267Z,2.60
2023-04-22T00:58:58.473Z,3.30
2023-04-22T00:59:58.588Z,3.10
2023-04-22T01:00:58.830Z,3.60
2023-04-22T01:01:58.991Z,3.80
2023-04-22T01:02:59.451Z,2.70
2023-04-22T01:03:59.713Z,3.10
2023-04-22T01:04:59.465Z,3.10
2023-04-22T01:05:59.657Z,2.40
2023-04-22T01:06:59.803Z,3.30
2023-04-22T01:07:59.972Z,3.00
2023-04-22T01:09:00.214Z,2.70
2023-04-22T01:10:00.375Z,2.80
2023-04-22T01:11:00.484Z,2.80
2023-04-22T01:12:00.649Z,3.20
2023-04-22T01:13:00.820Z,2.80
2023-04-22T01:14:01.029Z,3.00
2023-04-22T01:15:03.729Z,3.30
2023-04-22T01:16:01.359Z,3.10
2023-04-22T01:17:01.605Z,2.80
2023-04-22T01:18:01.748Z,3.30
2023-04-22T01:19:01.905Z,3.10
2023-04-22T01:20:02.057Z,3.50
2023-04-22T01:21:02.234Z,2.90
2023-04-22T01:22:02.392Z,3.90
2023-04-22T01:23:02.581Z,2.50
2023-04-22T01:24:02.826Z,2.90
2023-04-22T01:25:02.914Z,2.90
2023-04-22T01:26:03.083Z,2.70
2023-04-22T01:27:03.256Z,2.20
2023-04-22T01:28:03.431Z,3.30
2023-04-22T01:29:03.611Z,2.50
2023-04-22T01:30:03.790Z,2.80
2023-04-22T01:31:03.939Z,3.20
2023-04-22T01:32:04.155Z,3.00
2023-04-22T01:33:04.301Z,3.20
2023-04-22T01:34:04.472Z,3.00
2023-04-22T01:35:04.626Z,2.40
2023-04-22T01:36:04.799Z,2.80
2023-04-22T01:37:04.964Z,3.30
2023-04-22T01:38:05.134Z,2.40
2023-04-22T01:39:05.313Z,2.60
2023-04-22T01:40:05.498Z,2.80
2023-04-22T01:41:05.654Z,2.80
2023-04-22T01:42:05.821Z,2.90
2023-04-22T01:43:06.001Z,3.70
2023-04-22T01:44:06.185Z,2.70
2023-04-22T01:45:06.353Z,2.90
2023-04-22T01:46:06.540Z,3.60
2023-04-22T01:47:06.680Z,3.20
2023-04-22T01:48:06.941Z,3.30
2023-04-22T01:49:07.033Z,2.70
2023-04-22T01:50:07.261Z,4.20
2023-04-22T01:51:07.383Z,3.30
2023-04-22T01:52:07.553Z,3.30
2023-04-22T01:53:07.727Z,3.80
2023-04-22T01:54:07.909Z,3.30
2023-04-22T01:55:08.078Z,3.30
2023-04-22T01:56:08.250Z,3.40
2023-04-22T01:57:08.417Z,3.80
2023-04-22T01:58:08.587Z,2.80
2023-04-22T01:59:08.788Z,3.00
2023-04-22T02:00:08.933Z,3.40
2023-04-22T02:01:09.140Z,3.50
2023-04-22T02:02:09.329Z,3.00
2023-04-22T02:03:09.529Z,3.30
2023-04-22T02:04:09.622Z,4.40
2023-04-22T02:05:09.841Z,3.10
2023-04-22T02:06:09.982Z,3.40
2023-04-22T02:07:10.157Z,3.50
2023-04-22T02:08:10.337Z,3.50
2023-04-22T02:09:10.505Z,3.10
2023-04-22T02:10:10.693Z,3.30
2023-04-22T02:11:10.844Z,2.90
2023-04-22T02:12:11.025Z,2.90
2023-04-22T02:13:11.186Z,3.20
2023-04-22T02:14:11.363Z,3.60
2023-04-22T02:15:11.528Z,3.10
2023-04-22T02:16:11.757Z,3.30
2023-04-22T02:17:11.880Z,2.80
2023-04-22T02:18:12.051Z,3.70
2023-04-22T02:19:12.231Z,2.90
2023-04-22T02:20:12.521Z,2.90
2023-04-22T02:21:12.579Z,3.60
2023-04-22T02:22:12.750Z,3.30
2023-04-22T02:23:12.912Z,3.30
2023-04-22T02:24:13.102Z,2.80
2023-04-22T02:25:13.261Z,3.60
2023-04-22T02:26:13.437Z,3.40
2023-04-22T02:27:13.608Z,3.00
2023-04-22T02:28:13.787Z,3.50
2023-04-22T02:29:13.961Z,3.00
2023-04-22T02:30:14.146Z,3.20
2023-04-22T02:31:14.358Z,2.90
2023-04-22T02:32:14.480Z,3.10
2023-04-22T02:33:14.658Z,3.40
2023-04-22T02:34:14.829Z,3.60
2023-04-22T02:35:14.990Z,3.60
2023-04-22T02:36:15.228Z,3.50
2023-04-22T02:37:15.333Z,2.90
2023-04-22T02:38:15.516Z,3.20
2023-04-22T02:39:15.663Z,3.10
2023-04-22T02:40:15.831Z,3.10
2023-04-22T02:41:15.995Z,3.10
2023-04-22T02:42:16.157Z,3.30
2023-04-22T02:43:16.342Z,2.80
2023-04-22T02:44:16.507Z,3.50
2023-04-22T02:45:16.703Z,3.00
2023-04-22T02:46:16.912Z,3.10
2023-04-22T02:47:17.042Z,3.30
2023-04-22T02:48:17.218Z,3.50
2023-04-22T02:49:17.390Z,3.00
2023-04-22T02:50:17.577Z,3.10
2023-04-22T02:51:17.752Z,3.40
2023-04-22T02:52:17.910Z,3.60
2023-04-22T02:53:18.087Z,3.30
2023-04-22T02:54:18.278Z,3.00
2023-04-22T02:55:18.459Z,3.70
2023-04-22T02:56:18.610Z,3.30
2023-04-22T02:57:18.778Z,2.80
2023-04-22T02:58:18.959Z,3.00
2023-04-22T02:59:19.127Z,3.20
2023-04-22T03:00:19.311Z,3.80
2023-04-22T03:01:19.571Z,3.10
2023-04-22T03:02:19.729Z,3.40
2023-04-22T03:03:20.020Z,3.40
2023-04-22T03:04:20.061Z,3.00
2023-04-22T03:05:20.211Z,3.40
2023-04-22T03:06:20.339Z,3.10
2023-04-22T03:07:20.527Z,4.20
2023-04-22T03:08:20.711Z,3.80
2023-04-22T03:09:20.867Z,3.50
2023-04-22T03:10:21.030Z,3.20
2023-04-22T03:11:21.201Z,3.80
2023-04-22T03:12:21.389Z,2.90
2023-04-22T03:13:21.535Z,4.20
2023-04-22T03:14:21.700Z,3.10
2023-04-22T03:15:22.046Z,3.50
2023-04-22T03:16:22.147Z,3.20
2023-04-22T03:17:22.321Z,3.10
2023-04-22T03:18:22.415Z,3.10
2023-04-22T03:19:22.539Z,2.80
2023-04-22T03:20:22.721Z,3.40
2023-04-22T03:21:22.890Z,3.80
2023-04-22T03:22:23.052Z,3.90
2023-04-22T03:23:23.247Z,3.30
2023-04-22T03:24:23.449Z,3.20
2023-04-22T03:25:23.572Z,3.50
2023-04-22T03:26:23.743Z,3.60
2023-04-22T03:27:23.933Z,3.20
2023-04-22T03:28:24.103Z,3.50
2023-04-22T03:29:24.268Z,3.90
2023-04-22T03:30:24.442Z,3.60
2023-04-22T03:31:24.666Z,3.30
2023-04-22T03:32:24.922Z,3.50
2023-04-22T03:33:24.999Z,3.60
2023-04-22T03:34:25.180Z,3.00
2023-04-22T03:35:25.362Z,2.70
2023-04-22T03:36:25.510Z,3.00
2023-04-22T03:37:25.667Z,3.70
2023-04-22T03:38:25.867Z,3.20
2023-04-22T03:39:26.021Z,3.50
2023-04-22T03:40:26.204Z,3.60
2023-04-22T03:41:26.399Z,3.00
2023-04-22T03:42:26.621Z,3.40
2023-04-22T03:43:26.740Z,3.40
2023-04-22T03:44:26.926Z,3.30
2023-04-22T03:45:27.149Z,3.60
2023-04-22T03:46:27.348Z,3.30
2023-04-22T03:47:27.492Z,3.40
2023-04-22T03:48:27.657Z,3.00
2023-04-22T03:49:27.854Z,3.20
2023-04-22T03:50:28.008Z,4.50
2023-04-22T03:51:28.183Z,3.50
2023-04-22T03:52:28.373Z,3.30
2023-04-22T03:53:28.518Z,3.50
2023-04-22T03:54:28.695Z,3.20
2023-04-22T03:55:28.843Z,3.40
2023-04-22T03:56:29.016Z,3.20
2023-04-22T03:57:29.199Z,3.60
2023-04-22T03:58:29.343Z,3.50
2023-04-22T03:59:29.494Z,4.00
2023-04-22T04:00:29.680Z,3.00
2023-04-22T04:01:29.834Z,2.60
2023-04-22T04:02:30.123Z,3.30
2023-04-22T04:03:31.193Z,3.30
2023-04-22T04:04:30.763Z,3.10
2023-04-22T04:05:30.750Z,3.60
2023-04-22T04:06:30.667Z,4.00
2023-04-22T04:07:30.852Z,3.40
2023-04-22T04:08:31.031Z,3.80
2023-04-22T04:09:31.218Z,3.30
2023-04-22T04:10:31.387Z,3.50
2023-04-22T04:11:31.596Z,3.80
2023-04-22T04:12:31.725Z,3.50
2023-04-22T04:13:31.859Z,4.40
2023-04-22T04:14:32.048Z,3.90
2023-04-22T04:15:32.279Z,4.10
2023-04-22T04:16:32.438Z,3.40
2023-04-22T04:17:32.619Z,3.10
2023-04-22T04:18:32.738Z,4.20
2023-04-22T04:19:32.911Z,3.40
2023-04-22T04:20:33.085Z,3.20
2023-04-22T04:21:33.271Z,3.40
2023-04-22T04:22:33.483Z,2.90
2023-04-22T04:23:33.644Z,3.20
2023-04-22T04:24:33.831Z,3.30
2023-04-22T04:25:34.019Z,4.90
2023-04-22T04:26:34.185Z,4.50
2023-04-22T04:27:34.358Z,3.00
2023-04-22T04:28:34.547Z,3.70
2023-04-22T04:29:34.713Z,2.80
2023-04-22T04:30:34.892Z,2.90
2023-04-22T04:31:35.126Z,3.00
2023-04-22T04:32:35.305Z,3.20
2023-04-22T04:33:35.429Z,3.10
2023-04-22T04:34:35.604Z,3.30
2023-04-22T04:35:35.805Z,3.10
2023-04-22T04:36:35.967Z,3.90
2023-04-22T04:37:36.145Z,3.50
2023-04-22T04:38:36.295Z,3.20
2023-04-22T04:39:36.478Z,4.00
2023-04-22T04:40:36.637Z,3.30
2023-04-22T04:41:36.809Z,3.00
2023-04-22T04:42:37.002Z,3.50
2023-04-22T04:43:37.169Z,3.30
2023-04-22T04:44:37.348Z,3.70
2023-04-22T04:45:37.555Z,3.40
2023-04-22T04:46:37.888Z,3.30
2023-04-22T04:47:37.925Z,3.70
2023-04-22T04:48:38.041Z,3.50
2023-04-22T04:49:38.569Z,3.70
2023-04-22T04:50:38.385Z,3.90
2023-04-22T04:51:38.565Z,3.10
2023-04-22T04:52:38.754Z,3.40
2023-04-22T04:53:38.923Z,3.70
2023-04-22T04:54:39.108Z,3.30
2023-04-22T04:55:39.301Z,3.50
2023-04-22T04:56:39.484Z,3.10
2023-04-22T04:57:39.674Z,3.30
2023-04-22T04:58:39.826Z,3.40
2023-04-22T04:59:40.391Z,3.20
2023-04-22T05:00:40.188Z,3.30
2023-04-22T05:01:40.486Z,3.30
2023-04-22T05:02:40.690Z,3.40
2023-04-22T05:03:40.833Z,3.10
2023-04-22T05:04:40.995Z,3.90
2023-04-22T05:05:41.049Z,3.00
2023-04-22T05:06:41.229Z,3.30
2023-04-22T05:07:41.427Z,3.80
2023-04-22T05:08:41.617Z,3.00
2023-04-22T05:09:42.146Z,3.20
2023-04-22T05:10:41.957Z,3.40
2023-04-22T05:11:42.158Z,4.40
2023-04-22T05:12:42.319Z,3.80
2023-04-22T05:13:42.472Z,3.70
2023-04-22T05:14:42.630Z,3.60
2023-04-22T05:15:42.803Z,3.00
2023-04-22T05:16:43.049Z,3.10
2023-04-22T05:17:43.216Z,3.70
2023-04-22T05:18:43.325Z,3.80
2023-04-22T05:19:43.507Z,3.10
2023-04-22T05:20:43.687Z,3.40
2023-04-22T05:21:43.840Z,3.80
2023-04-22T05:22:44.016Z,2.90
2023-04-22T05:23:44.186Z,3.40
2023-04-22T05:24:44.354Z,3.50
2023-04-22T05:25:44.520Z,3.50
2023-04-22T05:26:44.694Z,3.10
2023-04-22T05:27:44.868Z,3.10
2023-04-22T05:28:45.036Z,3.20
2023-04-22T05:29:45.197Z,3.80
2023-04-22T05:30:45.403Z,2.90
2023-04-22T05:31:45.622Z,3.30
2023-04-22T05:32:45.822Z,3.30
2023-04-22T05:33:45.905Z,4.20
2023-04-22T05:34:46.061Z,3.20
2023-04-22T05:35:46.261Z,3.00
2023-04-22T05:36:46.415Z,3.60
2023-04-22T05:37:46.585Z,2.80
2023-04-22T05:38:46.777Z,3.50
2023-04-22T05:39:46.912Z,2.90
2023-04-22T05:40:47.091Z,3.10
2023-04-22T05:41:47.386Z,3.20
2023-04-22T05:42:47.415Z,3.40
2023-04-22T05:43:47.581Z,3.50
2023-04-22T05:44:47.739Z,2.80
2023-04-22T05:45:48.010Z,3.30
2023-04-22T05:46:48.088Z,3.40
2023-04-22T05:47:48.331Z,3.20
2023-04-22T05:48:48.434Z,3.70
2023-04-22T05:49:48.609Z,3.80
2023-04-22T05:50:48.798Z,3.40
2023-04-22T05:51:48.973Z,3.20
2023-04-22T05:52:49.142Z,3.40
2023-04-22T05:53:49.292Z,3.70
2023-04-22T05:54:49.455Z,3.00
2023-04-22T05:55:49.625Z,3.90
2023-04-22T05:56:49.802Z,3.10
2023-04-22T05:57:49.981Z,2.80
2023-04-22T05:58:50.169Z,3.40
2023-04-22T05:59:50.306Z,3.00
2023-04-22T06:00:50.484Z,3.50
2023-04-22T06:01:50.673Z,3.30
2023-04-22T06:02:50.961Z,4.00
2023-04-22T06:03:51.280Z,3.10
2023-04-22T06:04:51.441Z,3.10
2023-04-22T06:05:51.392Z,3.30
2023-04-22T06:06:51.528Z,3.70
2023-04-22T06:07:51.708Z,3.60
2023-04-22T06:08:51.902Z,3.30
2023-04-22T06:09:59.446Z,3.20
2023-04-22T06:10:53.245Z,3.10
2023-04-22T06:11:52.422Z,3.60
2023-04-22T06:12:52.585Z,3.10
2023-04-22T06:13:52.754Z,3.40
2023-04-22T06:14:52.923Z,3.50
2023-04-22T06:15:53.122Z,3.40
2023-04-22T06:16:53.331Z,3.30
2023-04-22T06:17:53.478Z,3.40
2023-04-22T06:18:53.606Z,3.50
2023-04-22T06:19:54.857Z,4.00
2023-04-22T06:20:53.976Z,3.80
2023-04-22T06:21:54.127Z,3.50
2023-04-22T06:22:54.302Z,3.80
2023-04-22T06:23:54.475Z,3.00
2023-04-22T06:24:54.642Z,3.90
2023-04-22T06:25:54.807Z,4.10
2023-04-22T06:26:54.995Z,3.50
2023-04-22T06:27:55.172Z,3.60
2023-04-22T06:28:55.335Z,3.90
2023-04-22T06:29:55.515Z,3.50
2023-04-22T06:30:55.672Z,3.30
2023-04-22T06:31:55.892Z,3.80
2023-04-22T06:32:56.021Z,3.30
2023-04-22T06:33:56.164Z,3.60
2023-04-22T06:34:56.321Z,3.40
2023-04-22T06:35:56.522Z,3.60
2023-04-22T06:36:56.680Z,3.70
2023-04-22T06:37:56.859Z,3.90
2023-04-22T06:38:57.028Z,3.30
2023-04-22T06:39:57.210Z,3.10
2023-04-22T06:40:57.373Z,3.30
2023-04-22T06:41:57.574Z,3.50
2023-04-22T06:42:57.726Z,3.80
2023-04-22T06:43:57.895Z,3.50
2023-04-22T06:44:58.062Z,4.10
2023-04-22T06:45:58.228Z,3.70
2023-04-22T06:46:58.547Z,4.10
2023-04-22T06:47:58.650Z,3.50
2023-04-22T06:48:58.742Z,3.40
2023-04-22T06:49:58.916Z,3.30
2023-04-22T06:50:59.076Z,3.70
2023-04-22T06:51:59.269Z,3.80
2023-04-22T06:52:59.397Z,3.60
2023-04-22T06:53:59.579Z,3.70
2023-04-22T06:54:59.738Z,3.90
2023-04-22T06:55:59.902Z,3.40
2023-04-22T06:57:00.123Z,3.90
2023-04-22T06:58:00.231Z,3.90
2023-04-22T06:59:00.396Z,4.10
2023-04-22T07:00:00.561Z,3.80
2023-04-22T07:01:00.736Z,3.40
2023-04-22T07:02:00.952Z,3.20
2023-04-22T07:03:01.132Z,4.00
2023-04-22T07:04:01.322Z,4.00
2023-04-22T07:05:01.478Z,4.30
2023-04-22T07:06:01.644Z,4.00
2023-04-22T07:07:01.817Z,3.40
2023-04-22T07:08:02.028Z,3.50
2023-04-22T07:09:02.151Z,3.70
2023-04-22T07:10:02.336Z,3.40
2023-04-22T07:11:02.526Z,3.30
2023-04-22T07:12:02.717Z,3.00
2023-04-22T07:13:02.878Z,3.30
2023-04-22T07:14:03.077Z,3.90
2023-04-22T07:15:03.258Z,3.20
2023-04-22T07:16:03.449Z,3.40
2023-04-22T07:17:03.566Z,3.30
2023-04-22T07:18:03.721Z,3.40
2023-04-22T07:19:03.882Z,3.40
2023-04-22T07:20:04.069Z,3.80
2023-04-22T07:21:04.257Z,4.10
2023-04-22T07:22:04.392Z,3.40
2023-04-22T07:23:04.572Z,2.90
2023-04-22T07:24:04.774Z,3.20
2023-04-22T07:25:04.912Z,3.10
2023-04-22T07:26:05.138Z,3.00
2023-04-22T07:27:05.271Z,3.50
2023-04-22T07:28:05.475Z,3.30
2023-04-22T07:29:05.628Z,4.10
2023-04-22T07:30:05.812Z,3.00
2023-04-22T07:31:05.983Z,3.10
2023-04-22T07:32:06.266Z,3.40
2023-04-22T07:33:06.341Z,3.30
2023-04-22T07:34:06.515Z,3.80
2023-04-22T07:35:06.669Z,12.00
2023-04-22T07:36:06.841Z,4.10
2023-04-22T07:37:07.010Z,4.10
2023-04-22T07:38:08.142Z,3.10
2023-04-22T07:39:07.321Z,3.40
2023-04-22T07:40:07.496Z,3.20
2023-04-22T07:41:07.646Z,3.50
2023-04-22T07:42:07.825Z,3.60
2023-04-22T07:43:08.022Z,3.40
2023-04-22T07:44:08.210Z,3.20
2023-04-22T07:45:08.394Z,2.90
2023-04-22T07:46:08.550Z,2.80
2023-04-22T07:47:08.761Z,3.10
2023-04-22T07:48:08.888Z,2.90
2023-04-22T07:49:09.069Z,3.10
2023-04-22T07:50:09.268Z,2.60
2023-04-22T07:51:09.429Z,3.40
2023-04-22T07:52:09.616Z,2.70
2023-04-22T07:53:09.781Z,3.30
2023-04-22T07:54:09.972Z,3.40
2023-04-22T07:55:10.156Z,3.00
2023-04-22T07:56:10.350Z,3.30
2023-04-22T07:57:10.503Z,3.10
2023-04-22T07:58:10.672Z,2.90
2023-04-22T07:59:10.850Z,2.90
2023-04-22T08:00:11.036Z,3.00
2023-04-22T08:01:11.214Z,3.00
2023-04-22T08:02:11.466Z,2.60
2023-04-22T08:03:11.722Z,3.20
2023-04-22T08:04:11.965Z,3.80
2023-04-22T08:05:11.974Z,2.70
2023-04-22T08:06:12.109Z,3.10
2023-04-22T08:07:31.748Z,3.00
2023-04-22T08:08:13.464Z,2.80
2023-04-22T08:09:12.608Z,2.80
2023-04-22T08:10:12.793Z,2.60
2023-04-22T08:11:12.979Z,3.10
2023-04-22T08:12:13.134Z,3.30
2023-04-22T08:13:13.300Z,2.70
2023-04-22T08:14:13.478Z,2.80
2023-04-22T08:15:13.628Z,3.10
2023-04-22T08:16:13.948Z,2.70
2023-04-22T08:17:14.005Z,3.10
2023-04-22T08:18:14.193Z,2.40
2023-04-22T08:19:14.393Z,2.70
2023-04-22T08:20:14.557Z,3.20
2023-04-22T08:21:14.710Z,2.90
2023-04-22T08:22:14.891Z,3.10
2023-04-22T08:23:15.074Z,3.10
2023-04-22T08:24:15.268Z,3.00
2023-04-22T08:25:15.422Z,3.00
2023-04-22T08:26:15.607Z,3.10
2023-04-22T08:27:15.774Z,2.70
2023-04-22T08:28:15.930Z,3.20
2023-04-22T08:29:16.102Z,2.60
2023-04-22T08:30:16.266Z,3.10
2023-04-22T08:31:16.453Z,3.10
2023-04-22T08:32:16.612Z,3.10
2023-04-22T08:33:16.758Z,2.70
2023-04-22T08:34:16.910Z,2.80
2023-04-22T08:35:17.078Z,3.00
2023-04-22T08:36:17.271Z,2.60
2023-04-22T08:37:17.401Z,2.30
2023-04-22T08:38:17.609Z,2.90
2023-04-22T08:39:17.736Z,2.40
2023-04-22T08:40:17.924Z,3.00
2023-04-22T08:41:18.088Z,2.10
2023-04-22T08:42:18.258Z,2.70
2023-04-22T08:43:18.427Z,2.30
2023-04-22T08:44:18.572Z,2.40
2023-04-22T08:45:18.794Z,2.50
2023-04-22T08:46:18.996Z,2.50
2023-04-22T08:47:19.110Z,2.60
2023-04-22T08:48:19.296Z,2.80
2023-04-22T08:49:19.507Z,2.90
2023-04-22T08:50:19.649Z,2.90
2023-04-22T08:51:19.806Z,2.60
2023-04-22T08:52:20.009Z,2.20
2023-04-22T08:53:20.686Z,2.50
2023-04-22T08:54:20.360Z,2.00
2023-04-22T08:55:20.561Z,3.00
2023-04-22T08:56:20.734Z,2.60
2023-04-22T08:57:20.889Z,2.30
2023-04-22T08:58:21.064Z,2.70
2023-04-22T08:59:21.222Z,2.60
2023-04-22T09:00:21.429Z,2.10
2023-04-22T09:01:21.612Z,2.50
2023-04-22T09:02:21.793Z,2.60
2023-04-22T09:03:21.986Z,2.70
2023-04-22T09:04:22.232Z,2.00
2023-04-22T09:05:22.254Z,2.00
2023-04-22T09:06:22.452Z,2.50
2023-04-22T09:07:22.624Z,2.80
2023-04-22T09:08:22.771Z,2.30
2023-04-22T09:09:22.921Z,2.00
2023-04-22T09:10:23.115Z,2.10
2023-04-22T09:11:23.318Z,1.80
2023-04-22T09:12:23.477Z,2.10
2023-04-22T09:13:23.705Z,2.10
2023-04-22T09:14:23.832Z,2.20
2023-04-22T09:15:23.984Z,1.80
2023-04-22T09:16:24.197Z,1.90
2023-04-22T09:17:24.341Z,1.80
2023-04-22T09:18:24.537Z,1.90
2023-04-22T09:19:24.698Z,2.00
2023-04-22T09:20:24.898Z,2.10
2023-04-22T09:21:25.069Z,2.30
2023-04-22T09:22:25.221Z,2.20
2023-04-22T09:23:25.388Z,2.00
2023-04-22T09:24:25.581Z,2.00
2023-04-22T09:25:25.765Z,2.30
2023-04-22T09:26:25.928Z,2.10
2023-04-22T09:27:26.085Z,2.10
2023-04-22T09:28:26.311Z,1.70
2023-04-22T09:29:26.446Z,1.70
2023-04-22T09:30:26.641Z,2.00
2023-04-22T09:31:26.862Z,1.90
2023-04-22T09:32:27.010Z,1.70
2023-04-22T09:33:27.179Z,2.20
2023-04-22T09:34:27.338Z,1.60
2023-04-22T09:35:27.497Z,1.40
2023-04-22T09:36:27.666Z,2.10
2023-04-22T09:37:36.098Z,1.70
2023-04-22T09:38:29.002Z,1.70
2023-04-22T09:39:28.170Z,1.80
2023-04-22T09:40:28.350Z,1.70
2023-04-22T09:41:28.514Z,1.80
2023-04-22T09:42:28.673Z,2.00
2023-04-22T09:43:28.841Z,1.50
2023-04-22T09:44:28.990Z,2.10
2023-04-22T09:45:29.193Z,2.00
2023-04-22T09:46:29.468Z,2.40
2023-04-22T09:47:29.566Z,1.60
2023-04-22T09:48:29.704Z,1.90
2023-04-22T09:49:29.854Z,1.70
2023-04-22T09:50:30.057Z,1.70
2023-04-22T09:51:30.224Z,1.30
2023-04-22T09:52:30.365Z,1.90
2023-04-22T09:53:30.522Z,1.60
2023-04-22T09:54:30.701Z,2.00
2023-04-22T09:55:30.872Z,1.50
2023-04-22T09:56:31.047Z,1.80
2023-04-22T09:57:31.226Z,1.80
2023-04-22T09:58:31.402Z,2.00
2023-04-22T09:59:31.569Z,1.60
2023-04-22T10:00:31.817Z,1.70
2023-04-22T10:01:31.932Z,1.70
2023-04-22T10:02:32.167Z,1.60
2023-04-22T10:03:32.340Z,1.90
2023-04-22T10:04:32.504Z,1.90
2023-04-22T10:05:32.634Z,1.40
2023-04-22T10:06:32.806Z,1.40
2023-04-22T10:07:32.991Z,1.40
2023-04-22T10:08:33.180Z,1.70
2023-04-22T10:09:33.342Z,1.40
2023-04-22T10:10:33.536Z,1.90
2023-04-22T10:11:33.696Z,1.20
2023-04-22T10:12:36.058Z,1.40
2023-04-22T10:13:34.021Z,2.10
2023-04-22T10:14:34.207Z,1.60
2023-04-22T10:15:34.404Z,1.40
2023-04-22T10:16:34.718Z,1.60
2023-04-22T10:17:34.794Z,1.80
2023-04-22T10:18:34.950Z,1.40
2023-04-22T10:19:35.161Z,1.40
2023-04-22T10:20:35.320Z,1.60
2023-04-22T10:21:35.469Z,1.80
2023-04-22T10:22:35.655Z,1.40
2023-04-22T10:23:35.825Z,1.40
2023-04-22T10:24:36.018Z,1.50
2023-04-22T10:25:36.156Z,1.50
2023-04-22T10:26:36.331Z,1.30
2023-04-22T10:27:36.513Z,1.40
2023-04-22T10:28:36.674Z,1.30
2023-04-22T10:29:36.878Z,1.20
2023-04-22T10:30:37.052Z,1.40
2023-04-22T10:31:37.209Z,1.30
2023-04-22T10:32:37.429Z,2.00
2023-04-22T10:33:37.557Z,2.10
2023-04-22T10:34:37.746Z,1.50
2023-04-22T10:35:37.946Z,1.70
2023-04-22T10:36:38.085Z,1.70
2023-04-22T10:37:38.277Z,1.80
2023-04-22T10:38:38.459Z,1.30
2023-04-22T10:39:38.972Z,1.10
2023-04-22T10:40:38.815Z,1.60
2023-04-22T10:41:39.010Z,2.00
2023-04-22T10:42:39.158Z,1.70
2023-04-22T10:43:39.347Z,1.50
2023-04-22T10:44:39.556Z,2.00
2023-04-22T10:45:39.730Z,1.50
2023-04-22T10:46:40.178Z,1.60
2023-04-22T10:47:40.106Z,1.30
2023-04-22T10:48:40.214Z,1.50
2023-04-22T10:49:40.514Z,1.20
2023-04-22T10:50:40.568Z,1.10
2023-04-22T10:51:40.833Z,1.30
2023-04-22T10:52:40.899Z,1.70
2023-04-22T10:53:41.069Z,1.60
2023-04-22T10:54:41.213Z,1.70
2023-04-22T10:55:41.415Z,1.70
2023-04-22T10:56:48.453Z,2.00
2023-04-22T10:57:42.748Z,1.80
2023-04-22T10:58:41.916Z,1.50
2023-04-22T10:59:42.089Z,1.90
2023-04-22T11:00:53.062Z,1.50
2023-04-22T11:01:43.437Z,1.60
2023-04-22T11:02:42.732Z,1.60
2023-04-22T11:03:42.835Z,1.70
2023-04-22T11:04:42.930Z,1.60
2023-04-22T11:05:43.119Z,1.40
2023-04-22T11:06:43.264Z,1.40
2023-04-22T11:07:43.463Z,2.00
2023-04-22T11:08:43.613Z,2.00
2023-04-22T11:09:43.799Z,1.30
2023-04-22T11:10:44.843Z,1.70
2023-04-22T11:11:44.166Z,1.30
2023-04-22T11:12:44.314Z,1.60
2023-04-22T11:13:44.503Z,1.20
2023-04-22T11:14:44.646Z,1.80
2023-04-22T11:15:44.856Z,1.50
2023-04-22T11:16:45.100Z,1.40
2023-04-22T11:17:45.208Z,1.40
2023-04-22T11:18:45.340Z,1.60
2023-04-22T11:19:45.523Z,1.40
2023-04-22T11:20:45.709Z,1.20
2023-04-22T11:21:45.869Z,1.50
2023-04-22T11:22:46.047Z,1.50
2023-04-22T11:23:46.213Z,1.40
2023-04-22T11:24:46.400Z,1.30
2023-04-22T11:25:46.613Z,1.40
2023-04-22T11:26:46.758Z,1.70
2023-04-22T11:27:46.928Z,1.10
2023-04-22T11:28:47.126Z,1.40
2023-04-22T11:29:47.306Z,1.20
2023-04-22T11:30:47.467Z,2.00
2023-04-22T11:31:47.728Z,1.30
2023-04-22T11:32:47.902Z,1.50
2023-04-22T11:33:50.183Z,1.30
2023-04-22T11:34:48.185Z,1.20
2023-04-22T11:35:48.399Z,1.70
2023-04-22T11:36:48.550Z,1.90
2023-04-22T11:37:48.709Z,1.60
2023-04-22T11:38:48.876Z,1.50
2023-04-22T11:40:10.254Z,1.80
2023-04-22T11:40:50.257Z,1.90
2023-04-22T11:41:49.410Z,1.70
2023-04-22T11:42:49.587Z,1.60
2023-04-22T11:43:49.755Z,1.40
2023-04-22T11:44:49.929Z,1.70
2023-04-22T11:45:50.168Z,1.20
2023-04-22T11:46:50.301Z,1.60
2023-04-22T11:47:50.533Z,1.10
2023-04-22T11:48:50.643Z,1.60
2023-04-22T11:49:50.810Z,1.30
2023-04-22T11:50:50.980Z,1.50
2023-04-22T11:51:51.136Z,1.30
2023-04-22T11:52:51.286Z,1.70
2023-04-22T11:53:51.469Z,1.30
2023-04-22T11:54:51.676Z,1.40
2023-04-22T11:55:51.823Z,1.50
2023-04-22T11:56:52.009Z,1.80
2023-04-22T11:57:52.196Z,1.80
2023-04-22T11:58:52.370Z,1.00
2023-04-22T11:59:52.544Z,1.50
2023-04-22T12:00:52.686Z,1.20
2023-04-22T12:01:52.889Z,1.60
2023-04-22T12:02:53.171Z,1.20
2023-04-22T12:03:53.324Z,1.50
2023-04-22T12:04:53.408Z,1.50
2023-04-22T12:05:53.555Z,1.40
2023-04-22T12:06:53.733Z,1.50
2023-04-22T12:07:53.876Z,1.60
2023-04-22T12:08:54.084Z,1.40
2023-04-22T12:09:54.240Z,1.60
2023-04-22T12:10:54.394Z,1.20
2023-04-22T12:11:54.581Z,1.40
2023-04-22T12:12:54.730Z,1.40
2023-04-22T12:13:54.925Z,1.10
2023-04-22T12:14:55.124Z,1.90
2023-04-22T12:15:55.280Z,1.70
2023-04-22T12:16:55.486Z,1.80
2023-04-22T12:17:55.604Z,1.70
2023-04-22T12:18:55.816Z,1.40
2023-04-22T12:19:55.947Z,1.70
2023-04-22T12:20:56.092Z,1.60
2023-04-22T12:21:56.275Z,1.40
2023-04-22T12:22:56.478Z,1.60
2023-04-22T12:23:56.621Z,1.50
2023-04-22T12:24:56.819Z,1.80
2023-04-22T12:25:56.978Z,1.60
2023-04-22T12:26:57.175Z,1.90
2023-04-22T12:27:57.349Z,1.80
2023-04-22T12:28:57.527Z,1.50
2023-04-22T12:29:57.734Z,1.30
2023-04-22T12:30:57.945Z,1.70
2023-04-22T12:31:58.061Z,1.80
2023-04-22T12:32:58.219Z,1.40
2023-04-22T12:33:58.454Z,2.00
2023-04-22T12:34:58.574Z,1.50
2023-04-22T12:35:58.757Z,1.20
2023-04-22T12:36:58.926Z,1.10
2023-04-22T12:37:59.112Z,1.20
2023-04-22T12:38:59.304Z,1.80
2023-04-22T12:39:59.506Z,1.20
2023-04-22T12:40:59.659Z,1.50
2023-04-22T12:41:59.824Z,1.50
2023-04-22T12:42:59.969Z,2.10
2023-04-22T12:44:00.164Z,1.50
2023-04-22T12:45:00.325Z,1.90
2023-04-22T12:46:00.519Z,1.50
2023-04-22T12:47:00.687Z,1.40
2023-04-22T12:48:00.849Z,1.20
2023-04-22T12:49:01.050Z,1.80
2023-04-22T12:50:01.244Z,1.80
2023-04-22T12:51:01.379Z,1.90
2023-04-22T12:52:01.564Z,1.90
2023-04-22T12:53:01.743Z,1.80
2023-04-22T12:54:01.948Z,2.40
2023-04-22T12:55:02.116Z,1.70
2023-04-22T12:56:02.265Z,1.40
2023-04-22T12:57:02.480Z,1.90
2023-04-22T12:58:02.618Z,1.20
2023-04-22T12:59:02.798Z,1.70
2023-04-22T13:00:03.010Z,1.80
2023-04-22T13:01:03.151Z,2.30
2023-04-22T13:02:03.355Z,2.10
2023-04-22T13:03:03.647Z,1.80
2023-04-22T13:04:03.831Z,1.20
2023-04-22T13:05:03.872Z,1.80
2023-04-22T13:06:04.040Z,1.20
2023-04-22T13:07:04.227Z,2.10
2023-04-22T13:08:07.566Z,1.50
2023-04-22T13:09:04.551Z,1.60
2023-04-22T13:10:04.753Z,1.30
2023-04-22T13:11:04.913Z,1.10
2023-04-22T13:12:05.066Z,1.80
2023-04-22T13:14:05.439Z,1.60
2023-04-22T13:15:05.583Z,1.70
2023-04-22T13:16:05.757Z,1.80
2023-04-22T13:17:05.918Z,1.30
2023-04-22T13:18:06.215Z,1.60
2023-04-22T13:19:06.292Z,1.50
2023-04-22T13:20:06.495Z,1.90
2023-04-22T13:21:06.660Z,1.30
2023-04-22T13:22:06.824Z,1.70